Time;durP1;ratioP1;P1;durP2;ratioP2;P2;SDS_P1;SDS_P2;PMS_P1;PMS_P2;Temp;Humidity;BMP_temperature;BMP_pressure;BME280_temperature;BME280_humidity;BME280_pressure;Samples;Min_cycle;Max_cycle;Signal;HPM_P1;HPM_P2
2021/06/17 00:00:26;;;;;;;8.55;3.40;;;30.60;56.50;;;;;;5091898;23;20526;-77
2021/06/17 00:02:29;;;;;;;4.78;3.38;;;30.50;56.90;;;;;;5090251;23;20080;-76
2021/06/17 00:04:34;;;;;;;6.53;3.55;;;30.50;56.70;;;;;;5091040;23;20028;-71
2021/06/17 00:06:37;;;;;;;10.50;3.47;;;30.50;56.80;;;;;;5091262;23;20096;-72
2021/06/17 00:08:40;;;;;;;8.68;3.42;;;30.50;56.90;;;;;;5090972;23;20021;-71
2021/06/17 00:10:45;;;;;;;7.05;3.28;;;30.60;56.80;;;;;;5090877;23;20080;-70
2021/06/17 00:12:49;;;;;;;5.22;2.92;;;30.50;56.70;;;;;;5092036;23;20022;-71
2021/06/17 00:14:52;;;;;;;6.40;3.20;;;30.50;56.80;;;;;;5092597;23;20024;-73
2021/06/17 00:16:55;;;;;;;6.07;3.30;;;30.50;56.70;;;;;;5092218;23;20028;-71
2021/06/17 00:18:59;;;;;;;5.35;3.17;;;30.40;56.80;;;;;;5091749;23;20362;-71
2021/06/17 00:21:04;;;;;;;6.90;3.15;;;30.50;57.10;;;;;;5091164;23;20421;-71
2021/06/17 00:23:08;;;;;;;5.25;3.10;;;30.40;56.80;;;;;;5089318;23;20021;-71
2021/06/17 00:25:12;;;;;;;6.18;3.03;;;30.50;56.90;;;;;;5090847;23;20100;-71
2021/06/17 00:27:16;;;;;;;5.35;3.65;;;30.40;57.60;;;;;;5091051;23;20048;-70
2021/06/17 00:29:19;;;;;;;6.63;3.53;;;30.30;57.50;;;;;;5090754;23;20025;-71
2021/06/17 00:31:22;;;;;;;8.23;3.50;;;30.40;57.40;;;;;;5091041;23;20028;-72
2021/06/17 00:33:26;;;;;;;5.32;3.20;;;30.40;57.10;;;;;;5090930;23;20056;-71
2021/06/17 00:35:29;;;;;;;5.50;3.20;;;30.40;57.30;;;;;;5091596;23;20022;-71
2021/06/17 00:37:34;;;;;;;7.93;3.13;;;30.40;57.30;;;;;;5091395;23;20067;-72
2021/06/17 00:39:39;;;;;;;5.95;3.40;;;30.40;57.70;;;;;;5091118;23;20022;-72
2021/06/17 00:41:43;;;;;;;4.50;3.03;;;30.40;57.70;;;;;;5091230;23;20080;-73
2021/06/17 00:43:46;;;;;;;9.25;2.95;;;30.40;57.50;;;;;;5092208;23;20026;-71
2021/06/17 00:45:51;;;;;;;5.97;2.95;;;30.30;57.70;;;;;;5092822;23;20017;-73
2021/06/17 00:47:55;;;;;;;10.63;3.55;;;30.30;57.90;;;;;;5092729;23;20022;-72
2021/06/17 00:49:58;;;;;;;6.22;3.03;;;30.30;57.80;;;;;;5092347;23;20029;-70
2021/06/17 00:52:03;;;;;;;6.43;3.40;;;30.30;57.90;;;;;;5090308;23;20029;-73
2021/06/17 00:54:07;;;;;;;;;;;30.30;57.70;;;;;;5091556;23;20018;-74
2021/06/17 00:56:10;;;;;;;5.88;3.20;;;30.20;57.90;;;;;;5091173;23;19916;-76
2021/06/17 00:58:14;;;;;;;6.70;3.30;;;30.20;57.90;;;;;;5090968;23;20018;-72
2021/06/17 01:00:19;;;;;;;5.20;3.20;;;30.30;57.70;;;;;;5089453;23;20387;-72
2021/06/17 01:02:22;;;;;;;5.28;3.03;;;30.30;57.60;;;;;;5088929;23;20022;-72
2021/06/17 01:04:26;;;;;;;6.05;3.10;;;30.40;57.30;;;;;;5090946;23;20451;-72
2021/06/17 01:06:29;;;;;;;9.33;3.60;;;30.50;57.30;;;;;;5091126;23;20351;-72
2021/06/17 01:08:48;;;;;;;5.47;3.20;;;30.50;57.40;;;;;;5090460;23;20356;-71
2021/06/17 01:11:05;;;;;;;8.52;3.70;;;30.50;57.50;;;;;;5090935;23;20024;-72
2021/06/17 01:13:13;;;;;;;6.47;3.45;;;30.40;57.70;;;;;;5090914;23;20018;-70
2021/06/17 01:15:44;;;;;;;9.45;3.30;;;30.40;57.80;;;;;;5091374;23;20025;-73
2021/06/17 01:17:54;;;;;;;4.65;3.20;;;30.40;57.90;;;;;;5093887;23;20017;-72
2021/06/17 01:20:07;;;;;;;5.65;3.13;;;30.50;57.80;;;;;;5094080;23;20021;-71
2021/06/17 01:22:19;;;;;;;6.80;3.50;;;30.40;57.60;;;;;;5092291;23;20017;-70
2021/06/17 01:24:45;;;;;;;7.00;3.33;;;30.40;57.60;;;;;;5090750;23;20026;-72
2021/06/17 01:27:31;;;;;;;6.95;2.85;;;30.40;57.60;;;;;;5090601;23;20351;-71
2021/06/17 01:29:40;;;;;;;9.20;3.63;;;30.40;57.80;;;;;;5054960;23;20022;-71
2021/06/17 01:31:43;;;;;;;8.80;3.22;;;30.40;57.40;;;;;;5090850;23;20021;-73
2021/06/17 01:33:48;;;;;;;5.70;2.78;;;30.40;57.60;;;;;;5090562;23;20029;-73
2021/06/17 01:35:59;;;;;;;4.55;3.22;;;30.40;57.30;;;;;;5091051;23;20383;-72
2021/06/17 01:38:04;;;;;;;7.07;3.20;;;30.50;57.90;;;;;;5089043;23;20033;-72
2021/06/17 01:40:08;;;;;;;5.35;3.10;;;30.40;57.90;;;;;;5090748;23;20025;-72
2021/06/17 01:42:13;;;;;;;5.85;2.78;;;30.40;57.80;;;;;;5090738;23;20018;-71
2021/06/17 01:44:20;;;;;;;10.70;3.05;;;30.30;58.00;;;;;;5090480;23;20482;-72
2021/06/17 01:46:26;;;;;;;7.95;3.40;;;30.40;58.30;;;;;;5091004;23;20022;-72
2021/06/17 01:48:30;;;;;;;6.50;3.20;;;30.20;58.20;;;;;;5090746;23;20021;-72
2021/06/17 01:50:34;;;;;;;7.28;2.70;;;30.20;58.50;;;;;;5090663;23;20115;-71
2021/06/17 01:52:37;;;;;;;25.20;3.87;;;30.10;58.60;;;;;;5090973;23;20177;-73
2021/06/17 01:54:42;;;;;;;81.88;7.18;;;30.00;58.90;;;;;;5090285;23;20026;-72
2021/06/17 01:56:46;;;;;;;295.73;18.08;;;29.30;61.10;;;;;;5090353;23;20025;-72
2021/06/17 01:58:53;;;;;;;97.37;7.83;;;28.60;66.60;;;;;;5090411;23;20076;-71
2021/06/17 02:00:59;;;;;;;38.40;6.72;;;27.30;78.70;;;;;;5089215;23;20436;-71
2021/06/17 02:03:07;;;;;;;36.88;7.00;;;25.50;97.40;;;;;;5089761;23;20448;-71
2021/06/17 02:05:13;;;;;;;22.83;5.13;;;24.40;99.90;;;;;;5092184;23;20021;-70
2021/06/17 02:07:17;;;;;;;22.55;5.72;;;24.30;99.90;;;;;;5091815;23;20336;-70
2021/06/17 02:09:23;;;;;;;16.80;5.45;;;24.20;99.90;;;;;;5092089;23;20083;-69
2021/06/17 02:11:29;;;;;;;29.67;6.30;;;24.30;99.90;;;;;;5091852;23;20025;-75
2021/06/17 02:13:33;;;;;;;35.13;8.52;;;24.10;99.90;;;;;;5094217;23;20084;-73
2021/06/17 02:15:36;;;;;;;15.73;5.85;;;24.20;99.90;;;;;;5094038;23;20055;-72
2021/06/17 02:17:43;;;;;;;16.27;5.05;;;24.50;99.90;;;;;;5095109;23;20023;-72
2021/06/17 02:19:51;;;;;;;20.30;5.00;;;24.70;99.90;;;;;;5092593;23;20025;-75
2021/06/17 02:21:58;;;;;;;19.40;5.30;;;25.00;99.90;;;;;;5066508;23;20096;-70
2021/06/17 02:24:03;;;;;;;18.00;5.72;;;25.00;99.90;;;;;;5091898;23;20076;-69
2021/06/17 02:26:07;;;;;;;17.02;5.50;;;24.90;99.90;;;;;;5091918;23;20056;-70
2021/06/17 02:28:15;;;;;;;14.93;5.32;;;24.90;99.90;;;;;;5092068;23;20021;-69
2021/06/17 02:30:18;;;;;;;16.92;4.70;;;24.80;99.90;;;;;;5091715;23;20325;-68
2021/06/17 02:32:23;;;;;;;14.85;4.82;;;25.00;99.90;;;;;;5091855;23;20033;-70
2021/06/17 02:34:27;;;;;;;16.52;5.88;;;25.00;99.90;;;;;;5091935;23;20033;-69
2021/06/17 02:36:32;;;;;;;18.30;4.90;;;24.60;99.90;;;;;;5091470;23;20069;-70
2021/06/17 02:38:37;;;;;;;;;;;24.20;99.90;;;;;;5090901;23;20028;-70
2021/06/17 02:40:44;;;;;;;23.23;5.87;;;24.00;99.90;;;;;;5092085;23;19995;-69
2021/06/17 02:42:48;;;;;;;21.65;5.95;;;23.20;99.90;;;;;;5091572;23;20427;-70
2021/06/17 02:44:51;;;;;;;27.67;6.93;;;23.00;99.90;;;;;;5090057;23;20041;-70
2021/06/17 02:46:54;;;;;;;21.55;6.50;;;23.00;99.90;;;;;;5091484;23;20028;-69
2021/06/17 02:48:57;;;;;;;24.30;6.50;;;23.00;99.90;;;;;;5092037;23;20026;-74
2021/06/17 02:51:01;;;;;;;19.25;5.47;;;22.90;99.90;;;;;;5092081;23;20072;-73
2021/06/17 02:53:06;;;;;;;17.53;5.90;;;22.70;99.90;;;;;;5091963;23;20080;-69
2021/06/17 02:55:10;;;;;;;17.17;5.28;;;22.80;99.90;;;;;;5091525;23;20052;-69
2021/06/17 02:57:19;;;;;;;16.27;5.90;;;23.00;99.90;;;;;;5091989;23;20076;-68
2021/06/17 02:59:34;;;;;;;17.50;5.93;;;23.20;99.90;;;;;;5091341;23;20100;-69
2021/06/17 03:01:43;;;;;;;15.45;5.40;;;23.20;99.90;;;;;;5091893;23;20021;-70
2021/06/17 03:03:54;;;;;;;15.40;5.05;;;23.20;99.90;;;;;;5091643;23;20626;-69
2021/06/17 03:06:04;;;;;;;15.25;5.43;;;23.30;99.90;;;;;;5091660;23;20565;-69
2021/06/17 03:08:15;;;;;;;17.33;5.28;;;23.30;99.90;;;;;;5091298;23;20079;-69
2021/06/17 03:10:22;;;;;;;18.98;5.65;;;23.40;99.90;;;;;;5090009;23;20561;-70
2021/06/17 03:12:27;;;;;;;15.48;5.35;;;23.30;99.90;;;;;;5091475;23;20021;-69
2021/06/17 03:14:33;;;;;;;;;;;23.40;99.90;;;;;;5092387;23;20021;-69
2021/06/17 03:16:37;;;;;;;;;;;23.60;99.90;;;;;;5092044;23;19920;-68
2021/06/17 03:18:42;;;;;;;16.58;5.47;;;23.70;99.90;;;;;;5092945;23;20508;-69
2021/06/17 03:20:47;;;;;;;20.30;5.70;;;23.70;99.90;;;;;;5093635;23;20407;-69
2021/06/17 03:22:53;;;;;;;17.52;6.30;;;23.90;99.90;;;;;;5094777;23;20542;-69
2021/06/17 03:25:03;;;;;;;11.20;6.30;;;23.90;99.90;;;;;;5093551;23;20021;-70
2021/06/17 03:27:09;;;;;;;12.45;6.22;;;24.00;99.90;;;;;;5092333;23;20048;-69
2021/06/17 03:29:15;;;;;;;18.55;5.88;;;24.00;99.90;;;;;;5091392;23;20112;-69
2021/06/17 03:31:19;;;;;;;14.27;5.43;;;24.10;99.90;;;;;;5091239;23;20033;-69
2021/06/17 03:33:26;;;;;;;14.52;5.40;;;24.00;99.90;;;;;;5089742;23;20083;-69
2021/06/17 03:35:32;;;;;;;14.68;6.10;;;24.20;99.90;;;;;;5091454;23;20021;-71
2021/06/17 03:37:36;;;;;;;12.55;5.68;;;24.20;99.90;;;;;;5091712;23;20017;-70
2021/06/17 03:39:41;;;;;;;20.50;5.45;;;24.30;99.90;;;;;;5091740;23;20021;-71
2021/06/17 03:41:45;;;;;;;14.38;5.45;;;24.20;99.90;;;;;;5091602;23;20095;-71
2021/06/17 03:43:50;;;;;;;13.70;5.10;;;24.20;99.90;;;;;;5091601;23;20087;-71
2021/06/17 03:45:55;;;;;;;16.80;6.07;;;24.10;99.90;;;;;;5091248;23;20025;-71
2021/06/17 03:47:59;;;;;;;13.35;5.50;;;24.10;99.90;;;;;;5091375;23;20021;-70
2021/06/17 03:50:02;;;;;;;15.88;5.13;;;23.60;99.90;;;;;;5091370;23;20026;-70
2021/06/17 03:52:07;;;;;;;18.70;6.88;;;24.00;99.90;;;;;;5089881;23;20022;-70
2021/06/17 03:54:23;;;;;;;16.35;5.18;;;24.10;99.90;;;;;;5090808;23;20022;-71
2021/06/17 03:56:26;;;;;;;21.48;5.85;;;23.90;99.90;;;;;;5091418;23;20021;-70
2021/06/17 03:58:31;;;;;;;17.33;5.78;;;23.80;99.90;;;;;;5091379;23;20029;-70
2021/06/17 04:00:35;;;;;;;10.70;4.82;;;23.90;99.90;;;;;;5091300;23;20387;-70
2021/06/17 04:02:39;;;;;;;15.80;5.20;;;24.00;99.90;;;;;;5091143;23;20028;-70
2021/06/17 04:04:43;;;;;;;18.40;6.50;;;24.20;99.90;;;;;;5090585;23;20056;-70
2021/06/17 04:06:51;;;;;;;18.80;5.45;;;24.20;99.90;;;;;;5091007;23;20034;-71
2021/06/17 04:08:56;;;;;;;13.52;5.10;;;24.30;99.90;;;;;;5091039;23;20056;-69
2021/06/17 04:11:01;;;;;;;14.32;5.18;;;24.20;99.90;;;;;;5091041;23;20026;-70
2021/06/17 04:13:05;;;;;;;15.57;5.43;;;24.30;99.90;;;;;;5091745;23;20515;-70
2021/06/17 04:15:11;;;;;;;16.65;5.85;;;24.30;99.90;;;;;;5091226;23;20084;-70
2021/06/17 04:17:19;;;;;;;11.93;5.10;;;24.40;99.90;;;;;;5091390;23;20451;-70
2021/06/17 04:19:25;;;;;;;15.55;5.97;;;24.40;99.90;;;;;;5091611;23;20371;-71
2021/06/17 04:21:29;;;;;;;18.33;5.93;;;24.40;99.90;;;;;;5091340;23;20367;-75
2021/06/17 04:23:33;;;;;;;17.10;6.25;;;24.40;99.90;;;;;;5092539;23;20022;-72
2021/06/17 04:25:39;;;;;;;17.77;5.57;;;24.30;99.90;;;;;;5094442;23;20025;-72
2021/06/17 04:27:43;;;;;;;15.07;5.65;;;24.30;99.90;;;;;;5095055;23;20018;-72
2021/06/17 04:29:46;;;;;;;19.45;5.60;;;24.40;99.90;;;;;;5092817;23;20076;-69
2021/06/17 04:31:53;;;;;;;16.33;5.43;;;24.40;99.90;;;;;;5091197;23;20522;-71
2021/06/17 04:33:56;;;;;;;14.65;5.65;;;24.50;99.90;;;;;;5091153;23;20080;-69
2021/06/17 04:36:02;;;;;;;14.35;5.00;;;24.60;99.90;;;;;;5091318;23;20079;-70
2021/06/17 04:38:05;;;;;;;14.13;6.05;;;24.60;99.90;;;;;;5090947;23;20032;-75
2021/06/17 04:40:13;;;;;;;17.85;5.35;;;24.70;99.90;;;;;;5091362;23;20022;-76
2021/06/17 04:42:17;;;;;;;14.48;5.80;;;24.70;99.90;;;;;;5091099;23;20022;-74
2021/06/17 04:44:21;;;;;;;17.30;6.72;;;24.60;99.90;;;;;;5089360;23;20021;-72
2021/06/17 04:46:25;;;;;;;18.77;5.72;;;24.60;99.90;;;;;;5090695;23;20022;-69
2021/06/17 04:48:34;;;;;;;14.27;5.72;;;24.60;99.90;;;;;;5090466;23;20518;-71
2021/06/17 04:50:37;;;;;;;18.40;5.78;;;24.60;99.90;;;;;;5091022;23;20029;-71
2021/06/17 04:53:04;;;;;;;15.25;6.13;;;24.60;99.90;;;;;;5090896;23;20029;-74
2021/06/17 04:55:08;;;;;;;18.17;6.03;;;24.60;99.90;;;;;;5090738;23;20018;-70
2021/06/17 04:57:12;;;;;;;16.60;6.05;;;24.60;99.90;;;;;;5090841;23;20029;-69
2021/06/17 04:59:15;;;;;;;13.68;6.00;;;24.60;99.90;;;;;;5090743;23;20045;-71
2021/06/17 05:01:19;;;;;;;11.65;5.70;;;24.60;99.90;;;;;;5090521;23;20391;-69
2021/06/17 05:03:22;;;;;;;17.33;5.82;;;24.40;99.90;;;;;;5090554;23;20036;-69
2021/06/17 05:05:26;;;;;;;11.30;5.18;;;24.40;99.90;;;;;;5090510;23;20022;-69
2021/06/17 05:11:55;;;;;;;11.95;4.75;;;24.60;99.90;;;;;;5090715;23;20030;-69
2021/06/17 05:13:58;;;;;;;12.95;5.18;;;24.60;99.90;;;;;;5090784;23;20076;-69
2021/06/17 05:16:03;;;;;;;14.98;5.40;;;24.70;99.90;;;;;;5089032;23;20425;-70
2021/06/17 05:18:06;;;;;;;10.98;4.90;;;24.70;99.90;;;;;;5090315;23;20074;-68
2021/06/17 05:20:10;;;;;;;11.93;4.40;;;24.60;99.90;;;;;;5090803;23;20022;-68
2021/06/17 05:22:15;;;;;;;13.05;5.13;;;24.50;99.90;;;;;;5090453;23;20088;-69
2021/06/17 05:24:18;;;;;;;18.40;5.40;;;24.60;99.90;;;;;;5090599;23;20056;-69
2021/06/17 05:26:22;;;;;;;14.10;5.00;;;24.70;99.90;;;;;;5090400;23;20033;-69
2021/06/17 05:28:27;;;;;;;9.07;5.38;;;24.60;99.90;;;;;;5092725;23;20026;-70
2021/06/17 05:30:30;;;;;;;12.13;5.68;;;24.80;99.90;;;;;;5093063;23;20029;-71
2021/06/17 05:32:33;;;;;;;17.10;5.25;;;24.90;99.90;;;;;;5092680;23;20025;-71
2021/06/17 05:34:36;;;;;;;17.73;5.90;;;25.00;99.90;;;;;;5091625;23;20018;-69
2021/06/17 05:36:41;;;;;;;14.40;5.18;;;25.00;99.90;;;;;;5090735;23;20048;-71
2021/06/17 05:38:45;;;;;;;12.20;4.60;;;25.00;99.90;;;;;;5091148;23;20088;-70
2021/06/17 05:40:49;;;;;;;15.52;5.53;;;24.90;99.90;;;;;;5092198;23;20072;-69
2021/06/17 05:42:52;;;;;;;10.68;4.95;;;25.10;99.90;;;;;;5092456;23;20021;-71
2021/06/17 05:44:55;;;;;;;9.32;4.53;;;25.00;99.90;;;;;;5092317;23;20021;-70
2021/06/17 05:46:58;;;;;;;13.73;3.92;;;25.00;99.90;;;;;;5090566;23;20125;-70
2021/06/17 05:49:01;;;;;;;13.65;4.90;;;25.00;99.90;;;;;;5092391;23;20026;-70
2021/06/17 05:51:05;;;;;;;10.13;4.65;;;24.90;99.90;;;;;;5092269;23;20067;-70
2021/06/17 05:53:08;;;;;;;12.48;4.82;;;24.80;99.90;;;;;;5092221;23;20021;-70
2021/06/17 05:55:13;;;;;;;9.23;4.00;;;24.70;99.90;;;;;;5092340;23;20080;-69
2021/06/17 05:57:17;;;;;;;16.55;4.85;;;24.70;99.90;;;;;;5092395;23;20029;-71
2021/06/17 05:59:20;;;;;;;16.02;4.80;;;24.90;99.90;;;;;;5092488;23;20025;-71
2021/06/17 06:01:23;;;;;;;12.27;4.22;;;25.00;99.90;;;;;;5092110;23;20061;-70
2021/06/17 06:03:26;;;;;;;11.27;3.92;;;24.90;99.90;;;;;;5091706;23;20080;-70
2021/06/17 06:05:29;;;;;;;11.18;4.18;;;25.00;99.90;;;;;;5091210;23;20044;-68
2021/06/17 06:07:32;;;;;;;8.82;4.50;;;25.10;99.90;;;;;;5091671;23;20030;-70
2021/06/17 06:09:35;;;;;;;10.35;3.67;;;25.20;99.90;;;;;;5091800;23;20025;-73
2021/06/17 06:11:40;;;;;;;10.73;4.28;;;25.10;99.90;;;;;;5090469;23;20021;-74
2021/06/17 06:13:44;;;;;;;11.50;3.60;;;25.20;99.90;;;;;;5090657;23;20379;-73
2021/06/17 06:15:47;;;;;;;13.45;4.20;;;25.20;99.90;;;;;;5092702;23;20025;-70
2021/06/17 06:17:51;;;;;;;16.27;3.58;;;25.20;99.90;;;;;;5092435;23;20018;-71
2021/06/17 06:19:54;;;;;;;12.77;4.57;;;25.10;99.90;;;;;;5092880;23;20022;-70
2021/06/17 06:21:57;;;;;;;13.80;3.75;;;25.10;99.90;;;;;;5092592;23;20320;-71
2021/06/17 06:24:00;;;;;;;10.85;3.95;;;25.10;99.90;;;;;;5092206;23;20021;-69
2021/06/17 06:26:03;;;;;;;14.07;4.07;;;25.20;99.90;;;;;;5092427;23;20395;-72
2021/06/17 06:28:08;;;;;;;11.57;4.10;;;25.30;99.90;;;;;;5093963;23;20048;-70
2021/06/17 06:30:12;;;;;;;8.75;3.47;;;25.30;99.90;;;;;;5092258;23;20217;-70
2021/06/17 06:32:16;;;;;;;10.85;4.10;;;25.30;99.90;;;;;;5092650;23;20363;-70
2021/06/17 06:34:19;;;;;;;13.25;3.92;;;25.20;99.90;;;;;;5095218;23;20021;-70
2021/06/17 06:36:22;;;;;;;11.63;4.38;;;25.20;99.90;;;;;;5092633;23;20100;-70
2021/06/17 06:38:25;;;;;;;12.50;4.45;;;25.30;99.90;;;;;;5092173;23;20080;-70
2021/06/17 06:40:28;;;;;;;10.65;4.00;;;25.30;99.90;;;;;;5091897;23;20048;-69
2021/06/17 06:42:31;;;;;;;18.95;4.47;;;25.20;99.90;;;;;;5091532;23;20388;-69
2021/06/17 06:44:35;;;;;;;11.32;4.03;;;25.30;99.90;;;;;;5091812;23;20021;-70
2021/06/17 06:46:38;;;;;;;10.15;4.40;;;25.30;99.90;;;;;;5091322;23;20444;-69
2021/06/17 06:48:41;;;;;;;11.27;4.07;;;25.30;99.90;;;;;;5091481;23;20083;-71
2021/06/17 06:50:47;;;;;;;14.25;4.78;;;25.30;99.90;;;;;;5090860;23;20320;-70
2021/06/17 06:52:50;;;;;;;10.32;4.63;;;25.30;99.90;;;;;;5091656;23;20095;-72
2021/06/17 06:54:58;;;;;;;15.70;4.57;;;25.50;99.90;;;;;;5091247;23;20147;-70
2021/06/17 06:57:05;;;;;;;12.98;4.57;;;25.50;99.90;;;;;;5091840;23;20334;-69
2021/06/17 06:59:08;;;;;;;9.70;3.95;;;25.60;99.90;;;;;;5091566;23;20021;-70
2021/06/17 07:01:12;;;;;;;11.43;4.03;;;25.60;99.90;;;;;;5091576;23;20600;-70
2021/06/17 07:03:16;;;;;;;14.45;4.35;;;25.50;99.90;;;;;;5091894;23;20340;-71
2021/06/17 07:05:19;;;;;;;13.25;4.10;;;25.60;99.90;;;;;;5091595;23;20379;-70
2021/06/17 07:07:22;;;;;;;12.63;4.38;;;25.70;99.90;;;;;;5091872;23;20025;-70
2021/06/17 07:09:25;;;;;;;13.57;4.35;;;25.80;99.90;;;;;;5091681;23;20022;-70
2021/06/17 07:11:28;;;;;;;17.55;4.30;;;25.70;99.90;;;;;;5091290;23;20017;-70
2021/06/17 07:13:31;;;;;;;14.80;3.95;;;25.80;99.90;;;;;;5091274;23;20021;-70
2021/06/17 07:15:34;;;;;;;14.57;3.88;;;25.70;99.90;;;;;;5091652;23;20026;-69
2021/06/17 07:17:38;;;;;;;11.68;4.03;;;25.80;99.90;;;;;;5091308;23;20088;-70
2021/06/17 07:19:42;;;;;;;;;;;25.90;99.90;;;;;;5092309;23;20026;-69
2021/06/17 07:21:45;;;;;;;13.88;3.70;;;25.80;99.90;;;;;;5091807;23;19963;-69
2021/06/17 07:23:51;;;;;;;9.50;3.78;;;25.80;99.90;;;;;;5091034;23;20021;-70
2021/06/17 07:25:55;;;;;;;14.15;3.38;;;25.70;99.90;;;;;;5091066;23;20021;-69
2021/06/17 07:27:58;;;;;;;12.73;4.50;;;25.80;99.90;;;;;;5091424;23;20324;-71
2021/06/17 07:30:01;;;;;;;11.00;3.70;;;25.70;99.90;;;;;;5091559;23;20482;-71
2021/06/17 07:32:06;;;;;;;12.15;3.63;;;25.70;99.90;;;;;;5091070;23;20347;-73
2021/06/17 07:34:11;;;;;;;10.30;3.13;;;25.90;99.90;;;;;;5091399;23;20026;-71
2021/06/17 07:36:15;;;;;;;9.63;3.20;;;25.90;99.90;;;;;;5096179;23;20133;-76
2021/06/17 07:38:18;;;;;;;10.40;3.40;;;26.10;99.90;;;;;;5100783;23;20040;-76
2021/06/17 07:40:21;;;;;;;11.10;3.30;;;26.10;99.90;;;;;;5098355;23;20009;-72
2021/06/17 07:42:24;;;;;;;13.13;3.33;;;26.00;99.90;;;;;;5095092;23;20021;-72
2021/06/17 07:44:27;;;;;;;8.35;3.40;;;25.90;99.90;;;;;;5094013;23;20017;-75
2021/06/17 07:46:30;;;;;;;15.43;3.92;;;25.90;99.90;;;;;;5092236;23;20025;-75
2021/06/17 07:48:35;;;;;;;11.85;3.88;;;25.90;99.90;;;;;;5090991;23;20041;-76
2021/06/17 07:50:40;;;;;;;;;;;25.90;99.90;;;;;;5093037;23;20028;-77
2021/06/17 07:52:43;;;;;;;10.82;3.17;;;26.10;99.90;;;;;;5091511;23;19924;-75
2021/06/17 07:54:46;;;;;;;15.30;3.28;;;26.00;99.90;;;;;;5096558;23;20024;-73
2021/06/17 07:56:50;;;;;;;14.65;3.30;;;26.10;99.90;;;;;;5098641;23;20014;-73
2021/06/17 07:58:53;;;;;;;13.43;3.67;;;26.10;99.90;;;;;;5095889;23;20014;-69
2021/06/17 08:00:57;;;;;;;10.25;3.67;;;25.90;99.90;;;;;;5091055;23;20806;-73
2021/06/17 08:03:04;;;;;;;13.85;3.22;;;25.90;99.90;;;;;;5088948;23;20018;-72
2021/06/17 08:05:09;;;;;;;9.48;3.00;;;25.90;99.90;;;;;;5092895;23;20728;-72
2021/06/17 08:07:16;;;;;;;10.38;3.45;;;26.00;99.90;;;;;;5088601;23;20569;-75
2021/06/17 08:09:20;;;;;;;8.55;3.05;;;26.00;99.90;;;;;;5089060;23;20024;-71
2021/06/17 08:11:23;;;;;;;9.40;2.83;;;26.10;99.90;;;;;;5088552;23;20100;-71
2021/06/17 08:13:46;;;;;;;6.38;3.08;;;26.00;99.90;;;;;;5093712;23;20527;-71
2021/06/17 08:15:49;;;;;;;14.02;2.92;;;26.10;99.90;;;;;;5093160;23;20034;-72
2021/06/17 08:17:53;;;;;;;7.93;2.50;;;26.10;99.90;;;;;;5092244;23;20045;-73
2021/06/17 08:19:57;;;;;;;13.60;2.90;;;26.00;99.90;;;;;;5094457;23;20017;-73
2021/06/17 08:22:04;;;;;;;11.55;2.67;;;26.00;99.90;;;;;;5093012;23;20018;-72
2021/06/17 08:24:10;;;;;;;11.57;3.75;;;26.30;99.90;;;;;;5090784;23;20020;-71
2021/06/17 08:26:14;;;;;;;8.90;2.47;;;26.40;99.90;;;;;;5091335;23;20325;-71
2021/06/17 08:28:18;;;;;;;8.37;2.87;;;26.50;99.30;;;;;;5090366;23;20025;-71
2021/06/17 08:30:22;;;;;;;4.45;2.20;;;26.40;99.50;;;;;;5093538;23;20073;-68
2021/06/17 08:32:26;;;;;;;4.68;2.42;;;26.60;99.70;;;;;;5090690;23;20615;-74
2021/06/17 08:34:29;;;;;;;9.15;2.72;;;26.70;99.40;;;;;;5091269;23;20021;-74
2021/06/17 08:36:33;;;;;;;10.27;2.17;;;26.80;99.10;;;;;;5094754;23;20029;-73
2021/06/17 08:38:39;;;;;;;7.20;1.98;;;26.80;98.10;;;;;;5092791;23;20020;-73
2021/06/17 08:40:47;;;;;;;6.15;2.20;;;26.70;97.90;;;;;;5090342;23;20017;-75
2021/06/17 08:42:59;;;;;;;4.80;1.98;;;26.60;97.40;;;;;;5092800;23;20018;-71
2021/06/17 08:45:07;;;;;;;5.63;1.73;;;26.50;97.90;;;;;;5090641;23;20049;-71
2021/06/17 08:47:12;;;;;;;13.60;2.45;;;26.70;98.20;;;;;;5092079;23;20547;-71
2021/06/17 08:49:18;;;;;;;6.70;1.90;;;26.90;97.50;;;;;;5091575;23;20025;-73
2021/06/17 08:51:33;;;;;;;5.95;2.15;;;26.80;97.60;;;;;;5065894;23;20025;-69
2021/06/17 08:53:47;;;;;;;7.78;2.28;;;27.00;97.40;;;;;;5066164;23;20018;-73
2021/06/17 08:55:57;;;;;;;7.50;2.25;;;27.00;96.90;;;;;;5089168;23;20478;-71
2021/06/17 08:58:03;;;;;;;8.65;2.50;;;27.10;97.30;;;;;;5085596;23;20056;-72
2021/06/17 09:00:43;;;;;;;10.05;2.63;;;27.20;97.10;;;;;;5087510;23;20021;-74
2021/06/17 09:02:54;;;;;;;7.82;2.00;;;27.40;97.10;;;;;;5090479;23;20356;-74
2021/06/17 09:05:14;;;;;;;5.18;2.20;;;27.00;97.10;;;;;;5088362;23;20025;-72
2021/06/17 09:07:21;;;;;;;12.80;2.15;;;27.00;97.70;;;;;;5090521;23;20044;-73
2021/06/17 09:09:31;;;;;;;8.68;2.03;;;27.10;97.90;;;;;;5088228;23;20041;-71
2021/06/17 09:11:35;;;;;;;11.25;2.13;;;27.10;97.50;;;;;;5090620;23;20017;-71
2021/06/17 09:13:39;;;;;;;7.57;2.30;;;27.40;97.50;;;;;;5088761;23;20021;-75
2021/06/17 09:15:44;;;;;;;7.65;2.20;;;27.60;97.20;;;;;;5092610;23;20084;-77
2021/06/17 09:18:08;;;;;;;7.95;1.83;;;27.70;96.90;;;;;;5092710;23;20017;-74
2021/06/17 09:20:11;;;;;;;7.80;2.20;;;27.80;96.90;;;;;;5093791;23;20017;-73
2021/06/17 09:22:16;;;;;;;7.47;2.03;;;27.70;97.00;;;;;;5089392;23;20013;-73
2021/06/17 09:24:28;;;;;;;10.25;2.30;;;27.70;96.90;;;;;;5090375;23;20044;-75
2021/06/17 09:26:33;;;;;;;6.18;2.13;;;27.70;96.60;;;;;;5089632;23;20340;-75
2021/06/17 09:29:03;;;;;;;7.35;2.50;;;27.60;97.00;;;;;;5089349;23;20035;-73
2021/06/17 09:31:13;;;;;;;16.58;3.05;;;27.80;97.20;;;;;;5088629;23;20017;-74
2021/06/17 09:33:25;;;;;;;9.77;2.03;;;27.90;96.80;;;;;;5089111;23;20021;-76
2021/06/17 09:35:32;;;;;;;5.00;2.00;;;27.90;96.10;;;;;;5071202;23;20330;-72
2021/06/17 09:37:38;;;;;;;7.47;2.22;;;27.80;96.30;;;;;;5088944;23;20478;-75
2021/06/17 09:39:46;;;;;;;5.53;2.47;;;28.10;96.30;;;;;;5093861;23;20379;-71
2021/06/17 09:41:53;;;;;;;5.70;2.05;;;28.20;96.00;;;;;;5092217;23;20021;-72
2021/06/17 09:43:58;;;;;;;6.25;2.10;;;28.20;95.80;;;;;;5096014;23;20013;-72
2021/06/17 09:46:05;;;;;;;10.65;2.05;;;28.10;95.30;;;;;;5093449;23;20047;-73
2021/06/17 09:48:29;;;;;;;9.18;2.38;;;28.00;95.80;;;;;;5091380;23;20021;-74
2021/06/17 09:50:34;;;;;;;5.95;2.30;;;28.20;95.10;;;;;;5089245;23;20076;-73
2021/06/17 09:52:37;;;;;;;9.02;2.22;;;28.10;95.20;;;;;;5089524;23;20032;-76
2021/06/17 09:54:44;;;;;;;16.52;2.70;;;28.20;95.30;;;;;;5089462;23;20031;-73
2021/06/17 09:56:51;;;;;;;9.52;2.13;;;28.30;95.70;;;;;;5090238;23;20017;-73
2021/06/17 09:58:54;;;;;;;5.53;2.30;;;28.40;95.30;;;;;;5089673;23;20030;-75
2021/06/17 10:00:59;;;;;;;10.90;2.70;;;28.40;94.90;;;;;;5087777;23;20080;-75
2021/06/17 10:03:17;;;;;;;11.18;2.30;;;28.30;94.80;;;;;;5087744;23;20017;-76
2021/06/17 10:05:30;;;;;;;4.18;1.90;;;28.40;94.60;;;;;;5088805;23;20010;-72
2021/06/17 10:07:34;;;;;;;3.92;1.98;;;28.40;94.50;;;;;;5092851;23;20079;-72
2021/06/17 10:09:38;;;;;;;5.18;1.92;;;28.40;94.50;;;;;;5091885;23;20021;-71
2021/06/17 10:11:43;;;;;;;7.88;2.70;;;28.50;94.00;;;;;;5092637;23;20029;-69
2021/06/17 10:13:48;;;;;;;12.13;2.10;;;28.40;94.60;;;;;;5090366;23;20013;-69
2021/06/17 10:15:52;;;;;;;6.10;2.35;;;28.40;94.80;;;;;;5089625;23;20014;-69
2021/06/17 10:17:58;;;;;;;7.10;2.40;;;28.40;94.40;;;;;;5090946;23;20038;-69
2021/06/17 10:20:04;;;;;;;4.50;1.75;;;28.20;94.90;;;;;;5092054;23;20021;-70
2021/06/17 10:22:08;;;;;;;7.70;1.95;;;28.00;95.20;;;;;;5089051;23;20025;-69
2021/06/17 10:24:13;;;;;;;7.88;2.08;;;28.00;95.20;;;;;;5087385;23;20025;-69
2021/06/17 10:26:19;;;;;;;7.03;2.15;;;27.90;95.30;;;;;;5092620;23;20027;-69
2021/06/17 10:28:42;;;;;;;7.40;1.88;;;27.90;94.90;;;;;;5095790;23;20024;-71
2021/06/17 10:30:48;;;;;;;4.40;2.00;;;28.10;94.90;;;;;;5091532;23;20318;-71
2021/06/17 10:32:57;;;;;;;3.97;2.22;;;28.20;94.70;;;;;;5092519;23;20013;-71
2021/06/17 10:35:02;;;;;;;7.30;2.20;;;28.20;95.10;;;;;;5093521;23;20244;-71
2021/06/17 10:37:12;;;;;;;5.20;2.08;;;28.00;94.80;;;;;;5092914;23;20029;-74
2021/06/17 10:39:19;;;;;;;5.95;2.08;;;28.30;94.80;;;;;;5090880;23;20573;-72
2021/06/17 10:42:15;;;;;;;5.05;2.65;;;28.40;94.50;;;;;;5092350;23;20024;-71
2021/06/17 10:44:36;;;;;;;4.68;1.95;;;28.40;94.20;;;;;;5092227;23;20017;-70
2021/06/17 10:46:48;;;;;;;6.07;2.42;;;28.30;94.30;;;;;;5091918;23;20082;-71
2021/06/17 10:48:52;;;;;;;6.95;2.45;;;28.40;94.00;;;;;;5095993;23;20530;-71
2021/06/17 10:51:07;;;;;;;8.60;2.08;;;28.40;93.80;;;;;;5093619;23;20095;-72
2021/06/17 10:53:33;;;;;;;5.60;2.88;;;28.60;93.20;;;;;;5094433;23;20344;-71
2021/06/17 10:55:49;;;;;;;5.07;2.22;;;28.60;92.40;;;;;;5094194;23;20226;-74
2021/06/17 10:57:53;;;;;;;;;;;28.50;92.90;;;;;;5092766;23;20021;-72